Latest Observation

25 Stations

15 Minute Data | America/Los_Angeles
as of 9/3/26 12:02 AM PDT
Station Date Time Temp (°F) RH (%) Dew Pt (°F) Wind Spd (mph) Wind Dir (°) Wind Gust (mph) Latest Rain (In) Daily Rain (In) Daily Min Temp (°F) Daily Max Temp (°F)
Rockpile Upper (Cooley) 9/3/26 0000 54.4   3.0 90   6 51.5   1.2 3.8   1.7 SSW | 210 6.6   0.9 0.00 0.10 51.6   0.5 70.4   0.7
Rockpile Lower (Cooley) 9/2/26 2345 57.7   2.8 83   6 52.5   0.9 0.6   1.9 SW | 224 2.5   3.4 0.00 0.13 54.6   0.2 72.3   0.4
Cloverdale-East (Ranch 83) 9/3/26 0000 60.4   8.0 - - 1.4   1.4 S | 175 2.8   2.8 0.00 0.06 55.1   2.9 76.3   2.3
Cloverdale-SE (Ranch 38) 9/3/26 0000 59.5   1.8 79   4 53.0   0.5 2.5   0.8 SSE | 149 4.5   1.3 0.00 0.06 56.5   0.9 76.3   2.4
Geyserville-North (Hoffman) 9/3/26 0000 59.4   4.9 85   2 54.8   4.1 2.0   2.0 E | 85 4.7   4.7 0.00 0.00 56.8   4.7 79.5   2.4
Geyserville (Ranch 3) 9/3/26 0000 58.5   3.2 86   1 54.4   3.3 2.3   2.2 ESE | 103 5.0   2.7 0.00 0.09 57.3   4.5 75.7   0.5
Geyserville-East (Ranch 40) 9/3/26 0000 57.8   0.2 87   2 54.1   1.0 3.2   4.6 ESE | 113 7.2   3.7 0.00 0.09 57.1   4.5 74.9   1.5
Geyserville-South (Nervo Station) 9/3/26 0000 58.2   0.3 - - 0.0   0.2 N | 0 0.0   2.1 0.00 0.14 57.8   3.8 76.3   2.4
Peterson (Ranch 09) 9/3/26 0000 56.4   1.3 91   6 54.0   3.1 0.8   0.1 NE | 53 2.3   0.7 0.00 0.14 55.1   5.2 74.9   0.4
Crazy Creek Ranch 9/3/26 0000 56.6   0.9 95   11 55.1   4.2 0.2   0.2 NW | 326 1.4   0.7 0.00 0.15 55.6   5.9 76.6   0.3
Whitton Ranch (201e) 9/3/26 0000 55.8   1.7 96   0 54.8   1.8 0.0   0.5 N | 0 0.0   2.8 0.00 0.18 54.0   8.0 78.2   0.3
Lytton East (Shop Hill Bottom) 9/3/26 0000 57.6   1.5 90   1 54.7   1.3 1.2   0.2 E | 94 2.6   2.9 0.00 0.18 55.2   7.4 75.8   1.7
Lytton East (Hill 5) 9/3/26 0000 58.3   0.8 88   1 54.8   0.5 1.3   0.6 ESE | 123 4.1   0.4 0.00 0.17 56.8   4.6 76.2   2.5
Lytton West Lower (Lew 6) 9/3/26 0000 58.8   3.3 88   1 55.2   3.0 1.1   0.4 ENE | 70 3.2   0.7 0.00 0.19 56.1   8.7 75.5   0.6
Lytton West Hill (23PS) 9/3/26 0000 59.1   1.3 86   5 55.1   0.3 2.7   1.3 ESE | 109 5.2   1.4 0.00 0.17 57.8   4.7 76.0   2.6
Big River 9/3/26 0000 57.5   1.5 93   2 55.6   0.9 0.3   3.2 ENE | 64 1.7   5.4 0.00 0.19 57.3   5.3 73.6   0.9
Jimtown-North (Piccolo Ranch 15) 9/3/26 0000 56.2   1.7 100   18 56.3   7.1 0.5   0.5 NNE | 28 2.0   1.1 0.00 0.15 55.1   6.2 76.4   1.0
HWY 128/Chalk Hill Rd (Landslide) 9/3/26 0000 55.4   1.7 94   5 53.8   3.2 0.5   0.3 NE | 35 1.9   0.2 0.00 0.18 55.1   6.6 75.7   1.0
N Chalk Hill Rd (Ranch 63) 9/3/26 0000 53.3   0.6 93   4 51.4   1.8 0.2   0.7 WSW | 244 1.0   1.1 0.00 0.19 53.1   5.5 74.2   0.2
Newman Knights Valley 8/18/26 0015 56.2   1.8 85   4 51.7   0.4 0.8   3.5 NE | 55 2.3   5.8 0.00 0.00 55.0   1.2 88.3   0.6
Knights Valley (Bavarian Lion) 9/3/26 0000 52.0   2.6 94   2 50.3   3.1 0.0   0.5 N | 0 0.0   1.8 0.00 0.14 51.6   4.3 75.0   0.4
Red Tail 9/3/26 0000 54.2   0.9 90   3 51.5   0.1 0.8   0.2 N | 351 1.8   0.4 0.00 0.16 53.8   4.9 74.9   2.0
Franz Valley (Stornetta) 9/3/26 0000 52.3   0.0 94   5 50.6   1.4 0.1   0.0 WNW | 294 0.7   0.3 0.00 0.16 52.1   4.9 74.3   0.6
Upper Dry Creek Valley 9/3/26 0000 58.6   5.5 83   10 53.4   2.4 1.9   1.8 ESE | 103 3.6   2.5 0.00 0.08 54.7   4.6 76.2   0.2
Lower Dry Creek Valley 9/3/26 0000 58.1   3.8 89   1 54.8   4.1 0.0   0.0 N | 0 0.0   0.0 0.00 0.17 55.7   7.3 76.0   1.5
Max     60.4 100 56.3 3.8 - 7.2 0.00 0.19 57.8 79.5
Avg     56.9 90 53.7 1.1 - 2.7 0.00 - - -
Min     52.0 79 50.3 0.0 - 0.0 0.00 0.00 51.6 70.4